Aviation WX

[Source: ADDS]
METAR
KDUJ 261953Z AUTO 23010G19KT 10SM FEW041 25/16 A3007 RMK AO2 SLP172 T02500156 =
TAF
KDUJ 261727Z 2618/2718 21012KT P6SM VCTS BKN035CB FM262300 22005KT P6SM BKN080 FM270800 23003KT 6SM BR BKN015 FM271000 23004KT 3SM BR BKN008 FM271300 21008KT P6SM BKN025 =